Time;durP1;ratioP1;P1;durP2;ratioP2;P2;SDS_P1;SDS_P2;PMS_P1;PMS_P2;Temp;Humidity;BMP_temperature;BMP_pressure;BME280_temperature;BME280_humidity;BME280_pressure;Samples;Min_cycle;Max_cycle;Signal;HPM_P1;HPM_P2
2024/01/11 00:00:48;;;;;;;38.27;28.77;;;;;;;-2.36;60.13;95834.06;5069989;28;20212;-71
2024/01/11 00:03:14;;;;;;;42.23;28.57;;;;;;;-2.38;60.13;95834.09;5069577;28;20213;-76
2024/01/11 00:05:39;;;;;;;38.53;27.53;;;;;;;-2.42;60.56;95827.38;5066284;28;20228;-77
2024/01/11 00:08:05;;;;;;;39.37;27.40;;;;;;;-2.29;59.95;95825.22;5055968;28;20180;-76
2024/01/11 00:10:30;;;;;;;40.20;28.33;;;;;;;-2.40;59.98;95823.03;5071466;28;20221;-76
2024/01/11 00:12:56;;;;;;;42.17;29.23;;;;;;;-2.51;59.88;95820.81;5073713;28;20216;-77
2024/01/11 00:15:21;;;;;;;40.40;29.27;;;;;;;-2.42;60.11;95811.94;5070337;28;20289;-71
2024/01/11 00:17:46;;;;;;;46.87;29.43;;;;;;;-2.38;59.98;95820.38;5073953;28;20225;-71
2024/01/11 00:20:12;;;;;;;42.20;29.73;;;;;;;-2.34;59.71;95815.06;5072497;28;20206;-71
2024/01/11 00:22:37;;;;;;;45.30;29.83;;;;;;;-2.26;59.43;95805.34;5069874;28;20201;-76
2024/01/11 00:25:04;;;;;;;43.53;31.03;;;;;;;-2.32;59.68;95820.19;5070952;28;20224;-75
2024/01/11 00:27:29;;;;;;;45.73;30.07;;;;;;;-2.40;60.05;95811.88;5068177;28;20316;-75
2024/01/11 00:29:55;;;;;;;40.53;28.70;;;;;;;-2.36;60.25;95814.28;5075029;28;20295;-75
2024/01/11 00:32:23;;;;;;;45.30;28.93;;;;;;;-2.37;60.63;95810.03;5070102;28;20219;-76
2024/01/11 00:34:49;;;;;;;40.37;30.43;;;;;;;-2.30;60.22;95798.63;5068435;28;20184;-75
2024/01/11 00:37:14;;;;;;;41.80;28.50;;;;;;;-2.40;60.47;95811.88;5074890;28;20217;-74
2024/01/11 00:39:39;;;;;;;43.33;29.07;;;;;;;-2.29;59.98;95804.63;5070020;28;20327;-76
2024/01/11 00:42:05;;;;;;;42.37;29.43;;;;;;;-2.29;59.74;95804.63;5069812;28;20246;-75
2024/01/11 00:44:30;;;;;;;39.57;29.67;;;;;;;-2.37;59.79;95794.59;5056736;28;20229;-75
2024/01/11 00:46:56;;;;;;;47.60;29.93;;;;;;;-2.42;60.06;95804.19;5071358;28;20181;-75
2024/01/11 00:49:21;;;;;;;37.97;28.43;;;;;;;-2.43;59.89;95794.81;5073546;28;20224;-76
2024/01/11 00:51:47;;;;;;;41.70;28.33;;;;;;;-2.44;60.11;95809.41;5070412;28;20236;-75
2024/01/11 00:54:12;;;;;;;41.53;29.13;;;;;;;-2.43;60.03;95799.97;5078739;28;20220;-76
2024/01/11 00:56:37;;;;;;;40.93;29.47;;;;;;;-2.44;60.03;95790.53;5070406;28;20217;-75
2024/01/11 00:59:03;;;;;;;41.90;29.73;;;;;;;-2.44;59.99;95790.53;5072474;28;20173;-75
2024/01/11 01:01:28;;;;;;;40.80;28.33;;;;;;;-2.48;60.06;95800.13;5065898;28;20223;-76
2024/01/11 01:03:54;;;;;;;44.40;29.37;;;;;;;-2.54;60.31;95789.16;5064866;28;20235;-76
2024/01/11 01:06:19;;;;;;;44.50;30.60;;;;;;;-2.56;60.57;95789.25;5072852;28;20273;-75
2024/01/11 01:08:45;;;;;;;45.00;29.97;;;;;;;-2.73;60.45;95789.81;5070614;28;20216;-75
2024/01/11 01:11:10;;;;;;;48.60;29.80;;;;;;;-2.52;59.93;95785.66;5071332;28;20188;-74
2024/01/11 01:13:36;;;;;;;40.87;27.83;;;;;;;-2.63;60.47;95790.34;5074896;28;20191;-76
2024/01/11 01:16:01;;;;;;;40.50;30.00;;;;;;;-2.49;60.34;95795.84;5076792;28;20366;-76
2024/01/11 01:18:27;;;;;;;43.10;29.83;;;;;;;-2.59;60.27;95796.22;5075179;28;20225;-76
2024/01/11 01:20:52;;;;;;;44.83;30.60;;;;;;;-2.54;60.37;95791.75;5091941;28;20216;-75
2024/01/11 01:23:18;;;;;;;41.13;28.90;;;;;;;-2.58;60.03;95780.72;5071047;28;20184;-75
2024/01/11 01:25:43;;;;;;;45.47;31.27;;;;;;;-2.46;59.78;95776.84;5072793;28;20205;-75
2024/01/11 01:28:09;;;;;;;47.30;31.27;;;;;;;-2.61;60.25;95785.97;5075402;28;20244;-75
2024/01/11 01:30:34;;;;;;;48.20;31.90;;;;;;;-2.55;60.23;95788.34;5075075;28;20240;-75
2024/01/11 01:33:00;;;;;;;49.63;30.00;;;;;;;-2.57;60.30;95781.56;5074361;28;20229;-75
2024/01/11 01:35:25;;;;;;;43.60;30.53;;;;;;;-2.65;60.28;95786.97;5070046;28;20177;-75
2024/01/11 01:37:50;;;;;;;42.00;29.83;;;;;;;-2.82;60.72;95779.84;5071575;28;20252;-75
2024/01/11 01:40:16;;;;;;;44.43;30.20;;;;;;;-2.74;60.32;95783.00;5069582;28;20297;-75
2024/01/11 01:42:46;;;;;;;44.57;30.67;;;;;;;-2.91;60.71;95764.72;5073808;28;20221;-75
2024/01/11 01:45:12;;;;;;;40.30;28.27;;;;;;;-2.86;60.48;95760.25;5072802;28;20229;-75
2024/01/11 01:47:42;;;;;;;41.83;28.57;;;;;;;-2.88;60.39;95765.44;5070843;28;20217;-75
2024/01/11 01:50:09;;;;;;;37.47;27.93;;;;;;;-2.97;60.73;95755.44;5067580;28;20215;-75
2024/01/11 01:52:36;;;;;;;42.47;27.60;;;;;;;-2.93;61.05;95757.03;5069704;28;20245;-74
2024/01/11 01:55:04;;;;;;;41.40;29.27;;;;;;;-2.70;59.50;95748.53;5070376;28;20209;-74
2024/01/11 01:57:32;;;;;;;44.93;29.13;;;;;;;-2.72;60.14;95746.91;5071513;28;20238;-75
2024/01/11 01:59:58;;;;;;;42.50;29.37;;;;;;;-2.84;60.06;95748.16;5069239;28;20311;-74
2024/01/11 02:02:24;;;;;;;42.63;26.63;;;;;;;-2.82;60.14;95743.81;5074098;28;20275;-74
2024/01/11 02:04:50;;;;;;;39.93;27.33;;;;;;;-2.84;60.02;95737.88;5071946;28;20295;-74
2024/01/11 02:07:15;;;;;;;41.43;27.67;;;;;;;-2.82;59.69;95740.41;5069387;28;20231;-75
2024/01/11 02:09:42;;;;;;;39.33;26.53;;;;;;;-2.80;59.59;95739.44;5073086;28;20229;-75
2024/01/11 02:12:10;;;;;;;43.20;28.47;;;;;;;-2.82;59.65;95735.25;5071694;28;20228;-74
2024/01/11 02:14:37;;;;;;;37.93;24.10;;;;;;;-2.88;59.28;95738.88;5075922;28;20229;-74
2024/01/11 02:17:03;;;;;;;35.03;23.27;;;;;;;-2.90;58.77;95740.66;5071291;28;20216;-75
2024/01/11 02:19:29;;;;;;;35.20;21.80;;;;;;;-2.82;58.39;95735.25;5069518;28;20256;-75
2024/01/11 02:21:59;;;;;;;29.87;20.60;;;;;;;-2.94;58.53;95741.66;5069638;28;20326;-74
2024/01/11 02:24:25;;;;;;;31.10;20.70;;;;;;;-3.03;58.34;95741.97;5073443;28;20228;-74
2024/01/11 02:27:04;;;;;;;32.60;21.67;;;;;;;-3.11;58.59;95732.78;5072479;28;20234;-74
2024/01/11 02:29:31;;;;;;;32.23;21.80;;;;;;;-2.98;58.37;95738.34;5069995;28;20240;-74
2024/01/11 02:31:57;;;;;;;33.13;21.60;;;;;;;-3.03;57.99;95734.25;5071445;28;20185;-75
2024/01/11 02:34:24;;;;;;;34.93;23.03;;;;;;;-3.06;58.19;95734.38;5068793;28;20221;-75
2024/01/11 02:36:50;;;;;;;34.90;24.03;;;;;;;-2.95;57.78;95734.81;5062951;28;20301;-74
2024/01/11 02:39:18;;;;;;;37.37;25.70;;;;;;;-2.93;57.80;95740.78;5072032;28;20235;-74
2024/01/11 02:41:44;;;;;;;35.87;25.20;;;;;;;-3.11;58.12;95748.19;5079029;28;20294;-74
2024/01/11 02:44:09;;;;;;;37.30;24.93;;;;;;;-3.06;58.14;95730.06;5073204;28;20200;-74
2024/01/11 02:46:35;;;;;;;38.70;25.90;;;;;;;-3.13;57.79;95728.56;5073099;28;20196;-74
2024/01/11 02:49:00;;;;;;;39.47;25.43;;;;;;;-3.20;58.02;95727.94;5076375;28;20222;-74
2024/01/11 02:51:26;;;;;;;37.47;25.53;;;;;;;-3.32;58.26;95720.63;5070180;28;20232;-74
2024/01/11 02:53:51;;;;;;;42.20;27.53;;;;;;;-3.40;58.50;95727.75;5070505;28;20288;-74
2024/01/11 02:56:17;;;;;;;38.77;26.60;;;;;;;-3.35;57.88;95718.16;5070585;28;20212;-74
2024/01/11 02:58:42;;;;;;;42.17;28.63;;;;;;;-3.39;57.95;95714.03;5068806;28;20220;-74
2024/01/11 03:01:07;;;;;;;41.73;28.73;;;;;;;-3.40;58.29;95720.88;5071697;28;20252;-75
2024/01/11 03:03:33;;;;;;;46.37;28.10;;;;;;;-3.33;58.27;95718.97;5071972;28;20229;-75
2024/01/11 03:05:58;;;;;;;43.30;28.27;;;;;;;-3.35;57.85;95718.16;5070036;28;20243;-74
2024/01/11 03:08:26;;;;;;;43.37;28.23;;;;;;;-3.32;57.84;95718.91;5073253;28;20215;-74
2024/01/11 03:10:51;;;;;;;41.23;27.13;;;;;;;-3.27;57.94;95723.06;5071500;28;20188;-75
2024/01/11 03:13:16;;;;;;;43.20;28.57;;;;;;;-3.46;58.43;95721.09;5072049;28;20428;-74
2024/01/11 03:15:43;;;;;;;43.57;26.30;;;;;;;-3.34;58.27;95720.69;5077131;28;20223;-76
2024/01/11 03:18:09;;;;;;;39.37;26.83;;;;;;;-3.40;58.26;95720.03;5068507;28;20316;-75
2024/01/11 03:20:34;;;;;;;38.10;25.57;;;;;;;-3.41;58.18;95714.06;5071054;28;20230;-74
2024/01/11 03:23:00;;;;;;;37.63;26.10;;;;;;;-3.29;57.80;95722.25;5074621;28;20188;-75
2024/01/11 03:25:25;;;;;;;36.73;25.27;;;;;;;-3.26;57.95;95719.59;5067216;28;20228;-75
2024/01/11 03:27:50;;;;;;;38.60;25.70;;;;;;;-3.42;57.59;95712.41;5068659;28;20223;-75
2024/01/11 03:30:16;;;;;;;36.03;23.83;;;;;;;-3.55;58.66;95716.25;5068018;28;20232;-76
2024/01/11 03:32:41;;;;;;;37.33;23.23;;;;;;;-3.79;59.15;95713.56;5073851;28;20220;-76
2024/01/11 03:35:08;;;;;;;33.50;23.57;;;;;;;-3.82;58.89;95712.84;5069560;28;20195;-75
2024/01/11 03:37:34;;;;;;;35.40;24.87;;;;;;;-3.71;58.76;95715.91;5069281;28;20224;-76
2024/01/11 03:40:00;;;;;;;36.87;24.10;;;;;;;-3.59;58.68;95715.50;5066517;28;20239;-76
2024/01/11 03:42:26;;;;;;;29.70;22.63;;;;;;;-3.67;58.55;95712.34;5070132;28;20236;-75
2024/01/11 03:44:51;;;;;;;28.90;20.20;;;;;;;-3.89;59.27;95712.19;5072391;28;20243;-75
2024/01/11 03:47:16;;;;;;;29.03;19.10;;;;;;;-4.04;59.82;95712.66;5071977;28;20181;-75
2024/01/11 03:49:42;;;;;;;27.07;17.93;;;;;;;-4.05;59.54;95716.13;5070381;28;20189;-75
2024/01/11 03:52:07;;;;;;;23.60;17.53;;;;;;;-4.12;59.85;95712.88;5073839;28;20235;-75
2024/01/11 03:54:33;;;;;;;23.17;15.27;;;;;;;-4.06;59.71;95699.88;5074483;28;20239;-75
2024/01/11 03:56:58;;;;;;;21.17;15.47;;;;;;;-4.31;59.61;95704.88;5074964;28;20239;-75
2024/01/11 03:59:24;;;;;;;22.83;15.07;;;;;;;-4.08;59.07;95701.63;5074876;28;20192;-75
2024/01/11 04:01:49;;;;;;;21.03;15.47;;;;;;;-4.15;59.35;95700.13;5073170;28;20275;-75
2024/01/11 04:04:15;;;;;;;22.27;15.37;;;;;;;-4.30;59.66;95700.63;5075108;28;20256;-75
2024/01/11 04:06:40;;;;;;;21.50;15.50;;;;;;;-4.34;59.42;95694.72;5073414;28;20228;-75
2024/01/11 04:09:06;;;;;;;23.13;15.20;;;;;;;-4.10;59.38;95695.69;5074066;28;20232;-75
2024/01/11 04:11:31;;;;;;;23.50;15.87;;;;;;;-3.88;58.92;95700.16;5072527;28;20225;-75
2024/01/11 04:13:57;;;;;;;23.37;15.23;;;;;;;-3.95;58.50;95696.13;5073296;28;20402;-76
2024/01/11 04:16:22;;;;;;;19.30;14.80;;;;;;;-3.86;58.28;95694.09;5071606;28;20307;-75
2024/01/11 04:18:48;;;;;;;19.37;15.50;;;;;;;-3.83;58.40;95693.16;5068622;28;20231;-76
2024/01/11 04:21:29;;;;;;;21.53;15.00;;;;;;;-3.85;58.33;95687.22;5073277;28;20224;-75
2024/01/11 04:23:56;;;;;;;21.40;15.57;;;;;;;-3.71;58.52;95681.66;5071928;28;20227;-76
2024/01/11 04:26:21;;;;;;;23.93;15.13;;;;;;;-3.79;58.91;95681.91;5071825;28;20184;-75
2024/01/11 04:28:47;;;;;;;21.50;14.87;;;;;;;-3.67;58.61;95681.50;5072668;28;20284;-76
2024/01/11 04:31:14;;;;;;;21.37;15.37;;;;;;;-3.67;58.13;95676.34;5076529;28;20301;-75
2024/01/11 04:33:43;;;;;;;18.73;13.93;;;;;;;-3.58;58.50;95683.78;5070744;28;20221;-75
2024/01/11 04:36:09;;;;;;;20.60;14.57;;;;;;;-3.71;58.42;95685.06;5071813;28;20244;-75
2024/01/11 04:38:35;;;;;;;21.30;14.17;;;;;;;-3.68;58.56;95684.13;5070745;28;20291;-76
2024/01/11 04:41:00;;;;;;;19.90;14.03;;;;;;;-3.57;58.46;95690.59;5074525;28;20188;-75
2024/01/11 04:43:26;;;;;;;23.30;15.17;;;;;;;-3.66;58.93;95688.34;5070125;28;20217;-75
2024/01/11 04:45:51;;;;;;;23.33;15.87;;;;;;;-3.57;58.79;95693.16;5069382;28;20232;-76
2024/01/11 04:48:18;;;;;;;24.67;16.17;;;;;;;-3.55;58.79;95690.56;5069902;28;20225;-75
2024/01/11 04:50:44;;;;;;;20.70;14.63;;;;;;;-3.59;58.67;95689.78;5073060;28;20212;-75
2024/01/11 04:53:09;;;;;;;23.17;15.67;;;;;;;-3.58;58.55;95694.06;5072940;28;20237;-73
2024/01/11 04:55:35;;;;;;;20.27;14.67;;;;;;;-3.58;58.43;95683.78;5073565;28;20215;-73
2024/01/11 04:58:14;;;;;;;19.43;13.43;;;;;;;-3.83;58.74;95695.72;5065336;27;20570;-74
2024/01/11 05:00:39;;;;;;;21.40;15.37;;;;;;;-3.90;59.35;95689.09;5046836;28;20213;-73
2024/01/11 05:03:05;;;;;;;20.90;15.33;;;;;;;-4.09;59.45;95702.53;5043937;28;20229;-75
2024/01/11 05:05:30;;;;;;;20.53;14.93;;;;;;;-3.85;58.51;95689.78;5042067;28;20221;-72
2024/01/11 05:07:57;;;;;;;22.67;16.43;;;;;;;-4.11;58.92;95691.47;5046333;28;20354;-75
2024/01/11 05:10:22;;;;;;;25.50;16.73;;;;;;;-3.96;59.27;95699.56;5045709;28;20217;-74
2024/01/11 05:12:47;;;;;;;21.37;15.43;;;;;;;-4.02;59.15;95696.31;5046322;28;20225;-74
2024/01/11 05:15:13;;;;;;;22.90;14.90;;;;;;;-3.94;59.31;95697.81;5039778;28;20224;-74
2024/01/11 05:17:38;;;;;;;25.40;15.90;;;;;;;-4.06;59.01;95689.59;5062042;28;20240;-75
2024/01/11 05:20:05;;;;;;;25.23;16.20;;;;;;;-4.10;58.96;95688.00;5044179;28;20288;-74
2024/01/11 05:22:30;;;;;;;23.50;16.17;;;;;;;-4.24;59.80;95685.00;5043462;28;20209;-74
2024/01/11 05:24:56;;;;;;;24.50;17.67;;;;;;;-4.03;59.59;95681.78;5044424;28;20275;-74
2024/01/11 05:27:21;;;;;;;24.37;18.60;;;;;;;-4.18;59.55;95669.41;5043974;28;20209;-75
2024/01/11 05:29:47;;;;;;;33.53;22.40;;;;;;;-4.06;59.64;95671.63;5039152;28;20225;-75
2024/01/11 05:32:12;;;;;;;30.33;21.50;;;;;;;-3.86;59.02;95665.00;5038664;28;20213;-73
2024/01/11 05:34:38;;;;;;;25.00;17.80;;;;;;;-3.95;58.86;95657.59;5043290;28;20213;-74
2024/01/11 05:37:03;;;;;;;26.40;17.70;;;;;;;-3.85;58.73;95671.81;5045529;28;20239;-73
2024/01/11 05:39:29;;;;;;;26.47;19.30;;;;;;;-3.91;58.59;95660.00;5024241;28;20214;-75
2024/01/11 05:41:54;;;;;;;31.43;18.97;;;;;;;-3.82;58.55;95664.84;5028287;28;20218;-75
2024/01/11 05:44:20;;;;;;;24.53;17.53;;;;;;;-3.74;58.40;95664.63;5045361;28;20192;-74
2024/01/11 05:46:45;;;;;;;25.23;17.30;;;;;;;-3.82;58.84;95661.44;5045260;28;20272;-75
2024/01/11 05:49:11;;;;;;;25.63;17.17;;;;;;;-3.89;58.98;95654.81;5043119;28;20222;-75
2024/01/11 05:51:36;;;;;;;25.90;17.13;;;;;;;-3.89;58.86;95659.97;5060834;28;20275;-73
2024/01/11 05:54:02;;;;;;;27.27;18.30;;;;;;;-4.02;59.35;95655.19;5044541;28;20217;-75
2024/01/11 05:56:27;;;;;;;23.17;17.73;;;;;;;-4.10;59.66;95651.19;5060029;28;20228;-74
2024/01/11 05:58:52;;;;;;;24.67;18.40;;;;;;;-3.96;59.19;95653.31;5062042;28;20211;-75
2024/01/11 06:01:18;;;;;;;28.10;18.57;;;;;;;-3.97;59.42;95652.50;5058662;28;20304;-74
2024/01/11 06:03:43;;;;;;;26.20;18.77;;;;;;;-3.89;59.38;95640.25;5043778;28;20223;-74
2024/01/11 06:06:09;;;;;;;27.93;19.30;;;;;;;-3.93;59.25;95651.53;5041477;28;20228;-74
2024/01/11 06:08:34;;;;;;;31.17;23.13;;;;;;;-3.69;59.29;95651.59;5033840;28;20225;-75
2024/01/11 06:11:00;;;;;;;34.80;25.07;;;;;;;-3.87;59.23;95642.78;5031610;28;20182;-75
2024/01/11 06:13:26;;;;;;;31.30;22.97;;;;;;;-3.99;59.54;95644.81;5029165;28;20222;-74
2024/01/11 06:15:51;;;;;;;30.47;22.33;;;;;;;-3.80;59.52;95650.22;5060629;28;20292;-73
2024/01/11 06:18:17;;;;;;;32.10;22.47;;;;;;;-3.82;59.45;95644.31;5048825;28;20256;-72
2024/01/11 06:20:42;;;;;;;35.27;22.80;;;;;;;-3.75;59.10;95646.66;5047545;28;20217;-74
2024/01/11 06:23:08;;;;;;;33.17;22.87;;;;;;;-3.73;59.21;95652.59;5045999;28;20243;-75
2024/01/11 06:25:33;;;;;;;37.87;26.30;;;;;;;-3.80;59.30;95650.22;5048018;28;20214;-74
2024/01/11 06:27:59;;;;;;;35.40;24.50;;;;;;;-3.71;58.92;95646.53;5047093;28;20217;-74
2024/01/11 06:30:25;;;;;;;33.43;23.63;;;;;;;-3.88;59.30;95641.06;5048686;28;20224;-72
2024/01/11 06:32:50;;;;;;;34.00;23.40;;;;;;;-3.75;59.43;95639.78;5050318;28;20213;-74
2024/01/11 06:35:16;;;;;;;35.60;24.53;;;;;;;-3.81;59.28;95627.97;5047975;28;20317;-73
2024/01/11 06:37:41;;;;;;;32.00;23.83;;;;;;;-3.64;59.26;95635.13;5047768;28;20217;-74
2024/01/11 06:40:08;;;;;;;33.13;23.83;;;;;;;-3.62;59.02;95627.38;5045017;28;20229;-72
2024/01/11 06:42:34;;;;;;;36.37;24.40;;;;;;;-3.62;59.07;95622.22;5067092;28;20221;-73
2024/01/11 06:44:59;;;;;;;33.17;24.53;;;;;;;-3.65;59.13;95628.31;5049034;28;20219;-72
2024/01/11 06:47:25;;;;;;;36.30;25.13;;;;;;;-3.63;59.27;95631.69;5062553;28;20189;-72
2024/01/11 06:49:51;;;;;;;34.33;26.10;;;;;;;-3.71;59.43;95620.81;5047523;28;20182;-72
2024/01/11 06:52:16;;;;;;;33.33;25.50;;;;;;;-3.67;59.50;95618.97;5049134;28;20224;-74
2024/01/11 06:54:42;;;;;;;35.87;26.10;;;;;;;-3.38;58.48;95628.28;5061388;28;20228;-75
2024/01/11 06:57:07;;;;;;;38.20;23.50;;;;;;;-3.37;58.76;95617.09;5044151;28;20229;-74
2024/01/11 06:59:34;;;;;;;33.13;22.70;;;;;;;-3.18;58.52;95623.28;5048950;28;20255;-74
2024/01/11 07:01:59;;;;;;;34.67;24.10;;;;;;;-3.25;58.50;95619.25;5047199;28;20190;-76
2024/01/11 07:04:24;;;;;;;31.23;23.30;;;;;;;-3.11;58.11;95623.88;5049801;28;20287;-77
2024/01/11 07:06:50;;;;;;;34.10;23.77;;;;;;;-3.00;57.66;95615.78;5036309;28;20214;-75
2024/01/11 07:09:16;;;;;;;34.90;22.97;;;;;;;-3.17;58.26;95624.94;5042426;28;20320;-74
2024/01/11 07:11:43;;;;;;;38.53;25.03;;;;;;;-3.17;58.00;95630.09;5046027;28;20217;-75
2024/01/11 07:14:08;;;;;;;39.83;25.63;;;;;;;-3.51;58.99;95616.72;5048398;28;20181;-75
2024/01/11 07:16:34;;;;;;;43.07;27.07;;;;;;;-3.49;59.81;95623.50;5047654;28;20223;-76
2024/01/11 07:18:59;;;;;;;41.63;29.83;;;;;;;-3.25;59.27;95615.84;5062375;28;20229;-74
2024/01/11 07:21:31;;;;;;;49.37;28.43;;;;;;;-3.03;58.11;95624.44;5043208;28;20225;-74
2024/01/11 07:23:59;;;;;;;42.57;27.77;;;;;;;-3.42;59.32;95618.97;5046120;28;20279;-73
2024/01/11 07:26:25;;;;;;;49.03;28.17;;;;;;;-3.07;58.67;95624.59;5061573;28;20204;-75
2024/01/11 07:28:51;;;;;;;42.53;27.67;;;;;;;-3.39;59.40;95618.88;5062423;28;20186;-72
2024/01/11 07:31:16;;;;;;;44.63;27.90;;;;;;;-3.29;59.43;95611.69;5062328;28;20248;-73
2024/01/11 07:33:42;;;;;;;44.40;28.50;;;;;;;-2.93;58.49;95617.25;5045726;28;20222;-74
2024/01/11 07:36:09;;;;;;;47.37;28.17;;;;;;;-2.91;57.71;95613.72;5044713;28;20225;-76
2024/01/11 07:38:35;;;;;;;42.40;28.27;;;;;;;-2.66;57.38;95615.38;5043235;28;21170;-75
2024/01/11 07:41:01;;;;;;;45.70;28.70;;;;;;;-2.74;57.84;95622.56;5043446;28;20257;-74
2024/01/11 07:43:28;;;;;;;47.07;29.97;;;;;;;-2.64;57.22;95618.75;5042012;28;20218;-74
2024/01/11 07:45:56;;;;;;;44.60;29.57;;;;;;;-2.37;56.62;95621.19;5043710;28;20217;-75
2024/01/11 07:48:22;;;;;;;45.70;28.03;;;;;;;-2.32;55.43;95616.69;5038543;28;20263;-72
2024/01/11 07:50:48;;;;;;;44.33;29.63;;;;;;;-2.47;55.89;95615.53;5043439;28;20275;-76
2024/01/11 07:53:14;;;;;;;46.97;30.23;;;;;;;-2.40;56.25;95611.84;5043525;28;20193;-74
2024/01/11 07:55:40;;;;;;;41.03;28.57;;;;;;;-2.26;55.83;95619.03;5043594;28;20201;-76
2024/01/11 07:58:06;;;;;;;43.70;28.27;;;;;;;-2.29;55.72;95619.16;5063890;28;20240;-71
2024/01/11 08:00:32;;;;;;;48.97;29.93;;;;;;;-2.14;54.87;95607.38;5040030;28;20218;-72
2024/01/11 08:02:57;;;;;;;40.60;25.90;;;;;;;-2.17;55.15;95607.50;5048346;28;20220;-73
2024/01/11 08:05:22;;;;;;;44.27;28.53;;;;;;;-2.17;54.80;95604.94;5044208;28;20254;-73
2024/01/11 08:07:48;;;;;;;43.87;31.23;;;;;;;-2.03;54.84;95607.81;5043421;28;20177;-76
2024/01/11 08:10:14;;;;;;;44.67;31.70;;;;;;;-1.96;55.34;95598.09;5044699;28;20248;-74
2024/01/11 08:12:39;;;;;;;44.73;31.97;;;;;;;-1.93;54.71;95598.78;5044068;28;20226;-74
2024/01/11 08:15:05;;;;;;;51.37;32.27;;;;;;;-1.92;54.57;95597.06;5041393;28;20330;-73
2024/01/11 08:17:31;;;;;;;47.00;31.30;;;;;;;-1.69;54.34;95601.28;5042381;28;20233;-76
2024/01/11 08:19:56;;;;;;;44.33;29.07;;;;;;;-1.69;54.47;95599.53;5046028;28;20196;-75
2024/01/11 08:22:23;;;;;;;39.57;27.07;;;;;;;-1.66;53.55;95588.25;5049364;28;20225;-79
2024/01/11 08:24:48;;;;;;;36.10;27.20;;;;;;;-1.42;53.05;95586.38;5044473;28;20214;-77
2024/01/11 08:27:17;;;;;;;37.27;25.67;;;;;;;-1.58;52.84;95578.44;5042897;28;20280;-80
2024/01/11 08:29:43;;;;;;;39.70;26.70;;;;;;;-1.66;53.06;95589.09;5058114;28;20229;-77
2024/01/11 08:32:08;;;;;;;33.00;23.67;;;;;;;-1.68;53.64;95590.91;5045550;28;20177;-76
2024/01/11 08:34:34;;;;;;;31.90;23.07;;;;;;;-1.61;53.77;95589.72;5045853;28;20219;-72
2024/01/11 08:36:59;;;;;;;31.57;22.77;;;;;;;-1.44;53.39;95588.22;5042579;28;20292;-75
2024/01/11 08:39:25;;;;;;;37.10;24.67;;;;;;;-1.57;53.55;95582.72;5045780;28;20232;-75
2024/01/11 08:41:50;;;;;;;34.63;23.13;;;;;;;-1.39;53.43;95593.97;5044690;28;20217;-74
2024/01/11 08:44:16;;;;;;;31.87;23.37;;;;;;;-1.30;53.41;95585.03;5045586;28;20197;-73
2024/01/11 08:46:41;;;;;;;31.07;22.33;;;;;;;-1.26;53.22;95586.56;5044524;28;20178;-75
2024/01/11 08:49:08;;;;;;;35.80;23.90;;;;;;;-1.20;52.98;95588.91;5041407;28;20281;-74
2024/01/11 08:51:33;;;;;;;32.90;22.23;;;;;;;-1.45;52.50;95582.19;5063341;28;20249;-76
2024/01/11 08:53:59;;;;;;;34.50;23.67;;;;;;;-1.80;53.83;95586.25;5042414;28;20312;-74
2024/01/11 08:56:25;;;;;;;31.80;24.33;;;;;;;-1.54;53.65;95576.59;5062776;28;20260;-74
2024/01/11 08:58:51;;;;;;;37.13;23.70;;;;;;;-1.36;53.84;95575.81;5061405;28;20173;-75
2024/01/11 09:01:17;;;;;;;32.50;23.10;;;;;;;-1.37;53.55;95569.78;5042684;28;20225;-78
2024/01/11 09:03:43;;;;;;;33.47;24.07;;;;;;;-1.21;53.01;95571.72;5045536;28;20244;-72
2024/01/11 09:06:08;;;;;;;32.37;23.73;;;;;;;-1.07;53.14;95563.38;5042725;28;20312;-78
2024/01/11 09:08:34;;;;;;;39.37;24.17;;;;;;;-0.95;52.97;95553.34;5055642;28;20221;-72
2024/01/11 09:11:00;;;;;;;34.33;24.40;;;;;;;-0.64;52.07;95557.13;5045203;28;20193;-71
2024/01/11 09:13:26;;;;;;;34.63;23.93;;;;;;;-0.75;52.02;95552.44;5041632;28;20217;-76
2024/01/11 09:15:52;;;;;;;55.77;35.30;;;;;;;-0.59;51.35;95551.72;5043361;28;20217;-73
2024/01/11 09:18:18;;;;;;;32.13;23.30;;;;;;;-0.81;51.34;95546.72;5043579;28;20316;-75
2024/01/11 09:20:44;;;;;;;34.53;23.87;;;;;;;-0.62;50.83;95541.53;5044328;28;20320;-76
2024/01/11 09:23:09;;;;;;;30.93;23.53;;;;;;;-0.52;50.74;95540.19;5041112;28;20696;-74
2024/01/11 09:25:35;;;;;;;35.60;24.50;;;;;;;-0.46;50.48;95542.47;5040422;28;20217;-76
2024/01/11 09:28:00;;;;;;;35.80;24.67;;;;;;;-0.72;51.05;95538.56;5042967;28;20224;-75
2024/01/11 09:30:26;;;;;;;36.73;24.40;;;;;;;-0.46;50.45;95526.97;5046041;28;20225;-73
2024/01/11 09:32:52;;;;;;;34.53;23.77;;;;;;;-0.43;50.03;95531.16;5043427;28;20224;-73
2024/01/11 09:35:17;;;;;;;38.87;26.63;;;;;;;-0.76;51.18;95529.25;5039010;28;20200;-72
2024/01/11 09:37:45;;;;;;;34.90;26.37;;;;;;;-0.58;50.79;95520.66;5043611;28;20288;-73
2024/01/11 09:40:11;;;;;;;34.53;24.83;;;;;;;-0.53;50.89;95515.28;5039452;28;20228;-73
2024/01/11 09:42:38;;;;;;;34.07;24.93;;;;;;;-0.20;50.52;95507.66;5043778;28;20218;-78
2024/01/11 09:45:13;;;;;;;35.47;25.70;;;;;;;-0.41;50.91;95503.53;5045540;28;20236;-76
2024/01/11 09:47:40;;;;;;;35.50;24.97;;;;;;;-0.27;50.67;95495.94;5065771;28;20222;-74
2024/01/11 09:50:06;;;;;;;36.70;26.77;;;;;;;-0.16;50.63;95488.50;5048155;28;20205;-74
2024/01/11 09:52:33;;;;;;;35.13;24.73;;;;;;;-0.11;50.58;95481.34;5064321;28;20209;-73
2024/01/11 09:55:01;;;;;;;36.27;24.57;;;;;;;0.35;48.98;95475.63;5043576;28;20222;-75
2024/01/11 09:57:34;;;;;;;33.57;25.17;;;;;;;-0.25;49.65;95473.44;5046909;28;20233;-74
2024/01/11 10:00:07;;;;;;;32.50;25.70;;;;;;;-0.23;50.51;95469.88;5039016;28;20249;-72
2024/01/11 10:02:33;;;;;;;35.07;26.07;;;;;;;-0.20;51.26;95463.72;5048274;28;20320;-72
2024/01/11 10:04:58;;;;;;;36.07;24.53;;;;;;;0.07;50.46;95458.09;5041942;28;20377;-72
2024/01/11 10:07:27;;;;;;;34.60;25.37;;;;;;;0.09;50.14;95453.69;5045714;28;20243;-73
2024/01/11 10:09:53;;;;;;;35.57;24.43;;;;;;;0.16;49.65;95452.44;5048144;28;20224;-73
2024/01/11 10:12:20;;;;;;;34.30;24.93;;;;;;;0.26;49.70;95443.28;5063982;28;20252;-72
2024/01/11 10:14:47;;;;;;;34.87;25.63;;;;;;;0.35;50.00;95442.00;5047161;28;20298;-75
2024/01/11 10:17:12;;;;;;;35.23;25.67;;;;;;;0.52;49.52;95439.34;5047773;28;20198;-73
2024/01/11 10:19:38;;;;;;;34.37;25.03;;;;;;;0.72;50.11;95435.69;5049319;28;20189;-73
2024/01/11 10:22:04;;;;;;;34.30;24.40;;;;;;;0.86;49.36;95427.22;5048580;28;20217;-71
2024/01/11 10:24:30;;;;;;;31.47;24.80;;;;;;;0.96;48.89;95422.34;5050463;28;20252;-72
2024/01/11 10:26:57;;;;;;;35.83;24.03;;;;;;;1.21;49.76;95420.09;5044043;28;20248;-71
2024/01/11 10:29:23;;;;;;;35.97;23.53;;;;;;;1.37;47.93;95409.72;5059457;28;20201;-73
2024/01/11 10:31:50;;;;;;;29.20;22.73;;;;;;;1.28;47.31;95405.91;5042516;28;20221;-72
2024/01/11 10:34:16;;;;;;;29.23;23.23;;;;;;;1.46;47.39;95403.16;5047701;28;20222;-76
2024/01/11 10:36:41;;;;;;;32.53;23.57;;;;;;;1.71;46.58;95397.41;5050615;28;20227;-73
2024/01/11 10:39:09;;;;;;;32.47;23.77;;;;;;;1.83;45.36;95401.91;5049854;28;20226;-76
2024/01/11 10:41:42;;;;;;;32.13;23.87;;;;;;;1.62;46.70;95398.78;5048241;28;20240;-74
2024/01/11 10:44:16;;;;;;;34.90;24.07;;;;;;;1.79;45.88;95382.22;5045578;28;20200;-74
2024/01/11 10:46:44;;;;;;;31.13;23.40;;;;;;;1.68;46.58;95390.63;5064337;28;20206;-78
2024/01/11 10:49:14;;;;;;;32.03;23.77;;;;;;;1.77;46.71;95373.75;5047461;28;20214;-78
2024/01/11 10:51:42;;;;;;;35.43;26.20;;;;;;;1.88;47.39;95370.50;5048237;28;20308;-75
2024/01/11 10:54:07;;;;;;;40.60;28.70;;;;;;;2.09;47.17;95383.97;5046706;28;20229;-77
2024/01/11 10:56:34;;;;;;;41.07;30.17;;;;;;;2.24;47.34;95383.03;5040795;28;20236;-77
2024/01/11 10:59:01;;;;;;;41.03;31.57;;;;;;;2.37;46.47;95370.97;5045966;28;20177;-77
2024/01/11 11:01:27;;;;;;;44.40;31.70;;;;;;;2.23;46.53;95364.97;5061095;28;20255;-77
2024/01/11 11:03:55;;;;;;;43.27;31.57;;;;;;;2.21;47.42;95355.50;5049191;28;20237;-74
2024/01/11 11:06:23;;;;;;;40.80;32.07;;;;;;;2.35;47.91;95361.63;5065128;28;20278;-76
2024/01/11 11:08:53;;;;;;;44.33;32.57;;;;;;;2.56;47.66;95341.31;5048194;28;20309;-75
2024/01/11 11:11:19;;;;;;;46.07;31.83;;;;;;;2.52;47.43;95343.28;5035676;28;20178;-73